Inicio METAR Ruta Wind Satelite

Informe Meteorológico

Fecha: 2024/06/18 20:54:33 Local
2024.06.19 01:54 UTC


Operación:VFR
SKEJ 190100Z NIL =

SKEJ 182100Z 07004KT 9999 FEW020 32/24 Q1005
SKEJ 182000Z VRB02KT 9999 FEW015 33/25 Q1005
SKEJ 181900Z VRB02KT 9999 FEW015 33/25 Q1005
SKEJ 181800Z 23004KT 9999 FEW015 31/25 Q1006
SKEJ 181700Z 24004KT 9999 SCT015 32/25 Q1007